createdAt,value
2023-12-15T00:00:01.457Z,16.65
2023-12-15T00:02:28.578Z,16.55
2023-12-15T00:04:55.821Z,16.30
2023-12-15T00:07:22.735Z,15.55
2023-12-15T00:09:49.558Z,18.98
2023-12-15T00:12:16.531Z,18.92
2023-12-15T00:14:43.516Z,18.55
2023-12-15T00:17:10.527Z,20.83
2023-12-15T00:19:37.436Z,20.00
2023-12-15T00:22:04.417Z,26.15
2023-12-15T00:24:31.246Z,19.58
2023-12-15T00:26:59.354Z,20.75
2023-12-15T00:29:27.006Z,23.27
2023-12-15T00:31:54.225Z,21.63
2023-12-15T00:34:21.273Z,21.13
2023-12-15T00:36:48.647Z,22.15
2023-12-15T00:39:15.643Z,16.45
2023-12-15T00:41:42.553Z,21.52
2023-12-15T00:44:09.767Z,19.95
2023-12-15T00:46:37.282Z,21.63
2023-12-15T00:49:04.588Z,18.58
2023-12-15T00:51:31.545Z,22.50
2023-12-15T00:53:58.661Z,27.40
2023-12-15T00:56:25.729Z,25.67
2023-12-15T00:58:52.617Z,23.38
2023-12-15T01:01:19.853Z,24.52
2023-12-15T01:03:46.909Z,21.35
2023-12-15T01:06:14.208Z,21.85
2023-12-15T01:08:41.124Z,22.20
2023-12-15T01:11:08.042Z,20.98
2023-12-15T01:13:35.001Z,19.80
2023-12-15T01:16:06.227Z,22.23
2023-12-15T01:18:33.620Z,22.30
2023-12-15T01:21:00.648Z,29.83
2023-12-15T01:23:27.615Z,26.73
2023-12-15T01:25:54.613Z,24.17
2023-12-15T01:28:21.607Z,26.98
2023-12-15T01:30:48.872Z,21.30
2023-12-15T01:33:15.941Z,27.88
2023-12-15T01:35:43.079Z,24.45
2023-12-15T01:38:10.120Z,24.40
2023-12-15T01:40:37.182Z,29.55
2023-12-15T01:43:04.587Z,28.83
2023-12-15T01:45:31.643Z,29.75
2023-12-15T01:47:58.970Z,30.27
2023-12-15T01:50:26.019Z,26.85
2023-12-15T01:52:52.992Z,27.60
2023-12-15T01:55:19.854Z,29.30
2023-12-15T01:57:46.826Z,31.23
2023-12-15T02:00:14.260Z,26.55
2023-12-15T02:02:41.188Z,30.20
2023-12-15T02:05:08.590Z,28.60
2023-12-15T02:07:35.798Z,37.50
2023-12-15T02:10:02.938Z,32.63
2023-12-15T02:12:29.914Z,31.02
2023-12-15T02:14:56.717Z,34.10
2023-12-15T02:17:23.710Z,42.33
2023-12-15T02:19:50.554Z,34.30
2023-12-15T02:22:17.642Z,32.03
2023-12-15T02:24:44.495Z,41.45
2023-12-15T02:27:14.415Z,43.80
2023-12-15T02:29:41.514Z,35.85
2023-12-15T02:32:10.456Z,35.05
2023-12-15T02:34:37.798Z,36.85
2023-12-15T02:37:05.164Z,46.55
2023-12-15T02:39:32.896Z,37.72
2023-12-15T02:41:59.767Z,40.55
2023-12-15T02:44:26.915Z,39.22
2023-12-15T02:46:54.021Z,38.65
2023-12-15T02:49:21.180Z,42.72
2023-12-15T02:51:48.150Z,38.17
2023-12-15T02:54:15.277Z,44.28
2023-12-15T02:56:42.221Z,44.53
2023-12-15T02:59:09.223Z,34.58
2023-12-15T03:01:36.361Z,45.42
2023-12-15T03:04:03.401Z,43.22
2023-12-15T03:06:30.576Z,41.50
2023-12-15T03:08:57.483Z,44.80
2023-12-15T03:11:24.685Z,40.70
2023-12-15T03:13:51.577Z,48.05
2023-12-15T03:16:18.809Z,54.05
2023-12-15T03:18:46.006Z,43.35
2023-12-15T03:21:12.872Z,49.15
2023-12-15T03:23:39.707Z,46.58
2023-12-15T03:26:07.891Z,49.00
2023-12-15T03:28:34.754Z,45.30
2023-12-15T03:31:01.538Z,38.78
2023-12-15T03:33:35.758Z,42.78
2023-12-15T03:36:06.245Z,44.67
2023-12-15T03:38:36.118Z,47.67
2023-12-15T03:41:03.090Z,50.13
2023-12-15T03:43:29.944Z,49.13
2023-12-15T03:45:57.270Z,43.65
2023-12-15T03:48:24.767Z,45.50
2023-12-15T03:50:52.045Z,43.92
2023-12-15T03:53:18.966Z,48.72
2023-12-15T03:55:46.118Z,40.95
2023-12-15T03:58:13.044Z,49.28
2023-12-15T04:00:40.089Z,45.03
2023-12-15T04:03:07.208Z,44.58
2023-12-15T04:05:34.331Z,43.63
2023-12-15T04:08:01.515Z,40.25
2023-12-15T04:10:28.537Z,44.17
2023-12-15T04:12:55.442Z,44.95
2023-12-15T04:15:22.374Z,42.67
2023-12-15T04:17:52.660Z,39.85
2023-12-15T04:20:19.884Z,45.40
2023-12-15T04:22:47.031Z,43.65
2023-12-15T04:25:14.307Z,40.72
2023-12-15T04:27:44.623Z,48.40
2023-12-15T04:30:12.322Z,41.42
2023-12-15T04:32:39.583Z,43.20
2023-12-15T04:35:07.352Z,35.28
2023-12-15T04:37:34.841Z,36.22
2023-12-15T04:40:01.936Z,42.67
2023-12-15T04:42:29.829Z,39.83
2023-12-15T04:44:56.785Z,36.72
2023-12-15T04:47:23.659Z,35.72
2023-12-15T04:49:50.568Z,40.80
2023-12-15T04:52:17.484Z,39.72
2023-12-15T04:54:44.429Z,40.60
2023-12-15T04:57:11.281Z,35.50
2023-12-15T04:59:41.482Z,36.53
2023-12-15T05:02:09.189Z,34.75
2023-12-15T05:04:38.539Z,36.30
2023-12-15T05:07:07.021Z,41.53
2023-12-15T05:09:34.086Z,36.50
2023-12-15T05:12:01.012Z,37.88
2023-12-15T05:14:27.883Z,40.45
2023-12-15T05:16:55.557Z,37.45
2023-12-15T05:19:22.744Z,27.23
2023-12-15T05:21:49.734Z,33.78
2023-12-15T05:24:17.302Z,40.03
2023-12-15T05:26:44.906Z,32.38
2023-12-15T05:29:12.316Z,31.45
2023-12-15T05:31:39.298Z,43.58
2023-12-15T05:34:06.738Z,34.05
2023-12-15T05:36:33.748Z,33.67
2023-12-15T05:39:00.648Z,33.08
2023-12-15T05:41:27.673Z,33.60
2023-12-15T05:43:54.750Z,39.42
2023-12-15T05:46:21.973Z,30.05
2023-12-15T05:48:49.220Z,35.30
2023-12-15T05:51:16.280Z,35.80
2023-12-15T05:53:52.728Z,36.58
2023-12-15T05:56:24.733Z,34.03
2023-12-15T05:58:51.663Z,27.08
2023-12-15T06:01:18.858Z,33.80
2023-12-15T06:03:45.909Z,33.50
2023-12-15T06:06:16.106Z,30.67
2023-12-15T06:08:43.043Z,29.75
2023-12-15T06:11:09.893Z,32.13
2023-12-15T06:13:36.839Z,28.15
2023-12-15T06:16:03.927Z,32.10
2023-12-15T06:18:31.005Z,39.40
2023-12-15T06:20:58.332Z,30.30
2023-12-15T06:23:25.502Z,28.33
2023-12-15T06:25:52.446Z,27.67
2023-12-15T06:28:20.387Z,26.25
2023-12-15T06:30:49.941Z,22.27
2023-12-15T06:33:17.024Z,26.25
2023-12-15T06:35:44.209Z,35.08
2023-12-15T06:38:11.304Z,34.33
2023-12-15T06:40:38.404Z,34.55
2023-12-15T06:43:05.434Z,38.13
2023-12-15T06:45:32.348Z,25.48
2023-12-15T06:47:59.660Z,24.02
2023-12-15T06:50:27.380Z,28.10
2023-12-15T06:52:54.878Z,25.02
2023-12-15T06:55:21.966Z,32.42
2023-12-15T06:57:50.614Z,26.40
2023-12-15T07:00:19.031Z,27.17
2023-12-15T07:02:45.934Z,25.58
2023-12-15T07:05:13.027Z,25.45
2023-12-15T07:07:40.223Z,26.10
2023-12-15T07:10:08.167Z,27.35
2023-12-15T07:12:35.287Z,29.02
2023-12-15T07:15:02.501Z,30.23
2023-12-15T07:17:29.421Z,28.23
2023-12-15T07:19:56.518Z,31.92
2023-12-15T07:22:23.680Z,27.02
2023-12-15T07:24:50.558Z,28.02
2023-12-15T07:27:17.457Z,28.98
2023-12-15T07:29:44.403Z,23.85
2023-12-15T07:32:11.335Z,23.63
2023-12-15T07:34:38.307Z,19.38
2023-12-15T07:37:05.341Z,25.05
2023-12-15T07:39:32.186Z,24.90
2023-12-15T07:41:59.047Z,22.60
2023-12-15T07:44:26.110Z,20.48
2023-12-15T07:46:56.148Z,21.95
2023-12-15T07:49:24.822Z,19.40
2023-12-15T07:51:52.269Z,20.40
2023-12-15T07:54:22.234Z,24.98
2023-12-15T07:56:49.123Z,19.60
2023-12-15T07:59:17.029Z,17.00
2023-12-15T08:01:53.712Z,14.25
2023-12-15T08:04:20.935Z,16.15
2023-12-15T08:06:48.132Z,16.38
2023-12-15T08:09:15.051Z,19.25
2023-12-15T08:11:42.080Z,23.92
2023-12-15T08:14:09.057Z,15.50
2023-12-15T08:16:36.141Z,15.15
2023-12-15T08:19:06.762Z,15.07
2023-12-15T08:21:33.691Z,18.08
2023-12-15T08:24:00.782Z,25.50
2023-12-15T08:26:31.435Z,25.77
2023-12-15T08:28:58.345Z,24.92
2023-12-15T08:31:25.778Z,27.05
2023-12-15T08:33:53.805Z,27.90
2023-12-15T08:36:21.655Z,25.85
2023-12-15T08:38:48.601Z,28.63
2023-12-15T08:41:15.750Z,22.25
2023-12-15T08:43:42.966Z,18.23
2023-12-15T08:46:09.906Z,22.55
2023-12-15T08:48:36.950Z,27.98
2023-12-15T08:51:03.965Z,23.95
2023-12-15T08:53:30.969Z,32.70
2023-12-15T08:55:57.943Z,23.05
2023-12-15T08:58:25.075Z,15.77
2023-12-15T09:00:52.071Z,27.58
2023-12-15T09:03:19.599Z,24.40
2023-12-15T09:06:07.666Z,25.25
2023-12-15T09:08:33.584Z,32.05
2023-12-15T09:11:00.555Z,25.58
2023-12-15T09:13:27.552Z,30.20
2023-12-15T09:15:55.313Z,19.52
2023-12-15T09:18:22.301Z,23.60
2023-12-15T09:20:49.252Z,23.80
2023-12-15T09:23:16.259Z,29.20
2023-12-15T09:25:43.410Z,27.98
2023-12-15T09:28:11.199Z,33.38
2023-12-15T09:30:38.391Z,26.85
2023-12-15T09:33:05.738Z,30.40
2023-12-15T09:35:32.890Z,24.42
2023-12-15T09:38:00.147Z,33.25
2023-12-15T09:40:31.205Z,31.08
2023-12-15T09:42:58.194Z,27.25
2023-12-15T09:45:25.382Z,27.00
2023-12-15T09:47:53.230Z,34.38
2023-12-15T09:50:26.329Z,24.92
2023-12-15T09:52:54.518Z,25.17
2023-12-15T09:55:21.845Z,25.23
2023-12-15T09:57:49.476Z,23.63
2023-12-15T10:00:17.313Z,26.20
2023-12-15T10:02:44.803Z,25.20
2023-12-15T10:05:12.326Z,30.50
2023-12-15T10:07:39.379Z,20.50
2023-12-15T10:10:06.606Z,23.30
2023-12-15T10:12:33.507Z,20.13
2023-12-15T10:15:00.693Z,24.33
2023-12-15T10:17:28.374Z,28.55
2023-12-15T10:20:12.487Z,26.73
2023-12-15T10:22:41.118Z,20.05
2023-12-15T10:25:20.787Z,23.38
2023-12-15T10:27:51.767Z,27.90
2023-12-15T10:30:21.576Z,17.25
2023-12-15T10:32:49.917Z,23.63
2023-12-15T10:35:18.415Z,23.80
2023-12-15T10:37:47.266Z,17.08
2023-12-15T10:40:15.054Z,17.98
2023-12-15T10:42:43.225Z,20.00
2023-12-15T10:45:10.859Z,22.55
2023-12-15T10:47:38.858Z,16.95
2023-12-15T10:50:08.879Z,20.02
2023-12-15T10:52:38.011Z,23.48
2023-12-15T10:55:07.818Z,16.98
2023-12-15T10:57:34.944Z,19.45
2023-12-15T11:00:04.561Z,24.55
2023-12-15T11:02:33.135Z,25.60
2023-12-15T11:05:00.934Z,26.10
2023-12-15T11:07:29.746Z,25.48
2023-12-15T11:10:00.190Z,24.55
2023-12-15T11:12:38.740Z,21.73
2023-12-15T11:15:10.945Z,22.75
2023-12-15T11:17:48.186Z,19.45
2023-12-15T11:20:21.539Z,25.48
2023-12-15T11:22:57.713Z,30.30
2023-12-15T11:25:37.983Z,23.85
2023-12-15T11:28:09.621Z,26.88
2023-12-15T11:30:45.456Z,15.25
2023-12-15T11:33:42.086Z,21.98
2023-12-15T11:36:11.290Z,21.38
2023-12-15T11:38:39.221Z,19.50
2023-12-15T11:41:08.052Z,22.48
2023-12-15T11:43:37.815Z,27.20
2023-12-15T11:46:06.096Z,20.95
2023-12-15T11:48:37.298Z,21.25
2023-12-15T11:51:06.041Z,16.77
2023-12-15T11:53:34.338Z,26.13
2023-12-15T11:56:03.132Z,17.80
2023-12-15T11:58:30.405Z,24.00
2023-12-15T12:00:57.717Z,18.48
2023-12-15T12:03:25.315Z,20.55
2023-12-15T12:05:56.490Z,28.83
2023-12-15T12:08:24.886Z,25.60
2023-12-15T12:10:55.661Z,20.73
2023-12-15T12:13:32.275Z,20.63
2023-12-15T12:15:59.340Z,22.80
2023-12-15T12:18:27.856Z,20.13
2023-12-15T12:20:57.003Z,17.88
2023-12-15T12:23:39.470Z,22.50
2023-12-15T12:26:11.052Z,24.98
2023-12-15T12:28:52.817Z,22.50
2023-12-15T12:31:21.277Z,23.08
2023-12-15T12:33:48.938Z,26.95
2023-12-15T12:36:17.099Z,23.50
2023-12-15T12:38:46.178Z,28.08
2023-12-15T12:41:13.725Z,24.42
2023-12-15T12:43:42.122Z,27.50
2023-12-15T12:46:13.293Z,15.60
2023-12-15T12:48:40.859Z,24.23
2023-12-15T12:51:07.967Z,17.55
2023-12-15T12:53:34.898Z,27.02
2023-12-15T12:56:01.870Z,38.80
2023-12-15T12:58:29.079Z,20.80
2023-12-15T13:00:56.326Z,14.57
2023-12-15T13:03:24.192Z,19.95
2023-12-15T13:05:51.543Z,25.02
2023-12-15T13:08:18.538Z,19.75
2023-12-15T13:10:45.498Z,15.60
2023-12-15T13:13:14.226Z,19.25
2023-12-15T13:15:41.565Z,26.48
2023-12-15T13:18:11.250Z,16.70
2023-12-15T13:20:40.309Z,20.45
2023-12-15T13:23:10.481Z,24.55
2023-12-15T13:25:37.914Z,20.25
2023-12-15T13:28:07.316Z,14.68
2023-12-15T13:30:34.856Z,26.13
2023-12-15T13:33:02.148Z,24.95
2023-12-15T13:35:29.301Z,21.40
2023-12-15T13:37:56.671Z,18.88
2023-12-15T13:40:23.757Z,22.42
2023-12-15T13:42:50.895Z,23.45
2023-12-15T13:45:19.402Z,17.73
2023-12-15T13:47:46.473Z,17.40
2023-12-15T13:50:13.562Z,18.23
2023-12-15T13:52:40.851Z,20.45
2023-12-15T13:55:08.870Z,19.27
2023-12-15T13:57:36.052Z,19.55
2023-12-15T14:00:04.475Z,18.02
2023-12-15T14:02:32.593Z,19.73
2023-12-15T14:05:01.315Z,18.23
2023-12-15T14:07:30.796Z,13.30
2023-12-15T14:09:57.727Z,26.60
2023-12-15T14:12:28.244Z,19.92
2023-12-15T14:14:57.677Z,19.10
2023-12-15T14:17:29.266Z,18.45
2023-12-15T14:19:57.747Z,20.38
2023-12-15T14:22:24.957Z,19.92
2023-12-15T14:24:51.962Z,19.90
2023-12-15T14:27:19.059Z,33.60
2023-12-15T14:29:48.027Z,24.85
2023-12-15T14:32:16.953Z,15.77
2023-12-15T14:34:44.094Z,9.77
2023-12-15T14:37:11.077Z,18.42
2023-12-15T14:39:39.316Z,15.38
2023-12-15T14:42:06.570Z,15.80
2023-12-15T14:44:33.712Z,16.02
2023-12-15T14:47:03.047Z,16.42
2023-12-15T14:49:31.170Z,16.63
2023-12-15T14:51:58.188Z,21.73
2023-12-15T14:54:25.244Z,19.30
2023-12-15T14:56:52.456Z,17.45
2023-12-15T14:59:19.799Z,14.68
2023-12-15T15:01:47.739Z,16.65
2023-12-15T15:04:14.845Z,18.42
2023-12-15T15:06:46.159Z,11.43
2023-12-15T15:09:14.237Z,22.05
2023-12-15T15:11:41.263Z,14.93
2023-12-15T15:14:08.790Z,14.45
2023-12-15T15:16:36.280Z,15.25
2023-12-15T15:19:03.730Z,16.60
2023-12-15T15:21:31.039Z,17.17
2023-12-15T15:23:59.246Z,19.05
2023-12-15T15:26:28.785Z,18.10
2023-12-15T15:28:57.181Z,17.92
2023-12-15T15:31:26.115Z,19.42
2023-12-15T15:33:56.596Z,22.52
2023-12-15T15:36:25.260Z,17.40
2023-12-15T15:38:53.164Z,18.48
2023-12-15T15:41:20.068Z,17.70
2023-12-15T15:43:50.287Z,18.00
2023-12-15T15:46:21.215Z,19.42
2023-12-15T15:48:51.674Z,22.02
2023-12-15T15:51:25.366Z,24.63
2023-12-15T15:53:53.067Z,28.95
2023-12-15T15:56:20.579Z,23.38
2023-12-15T15:58:47.489Z,28.23
2023-12-15T16:01:36.400Z,24.40
2023-12-15T16:04:11.046Z,21.60
2023-12-15T16:06:38.735Z,21.88
2023-12-15T16:09:07.853Z,26.42
2023-12-15T16:11:36.278Z,21.23
2023-12-15T16:14:08.755Z,16.35
2023-12-15T16:16:38.533Z,18.52
2023-12-15T16:19:05.480Z,16.80
2023-12-15T16:21:36.609Z,60.58
2023-12-15T16:24:06.198Z,58.22
2023-12-15T16:26:33.178Z,39.35
2023-12-15T16:29:00.038Z,25.08
2023-12-15T16:31:27.256Z,43.70
2023-12-15T16:33:55.644Z,34.45
2023-12-15T16:36:23.840Z,26.73
2023-12-15T16:38:51.270Z,26.15
2023-12-15T16:41:25.631Z,51.30
2023-12-15T16:43:52.897Z,27.50
2023-12-15T16:46:19.890Z,39.25
2023-12-15T16:48:55.398Z,44.67
2023-12-15T16:51:24.716Z,34.58
2023-12-15T16:53:54.970Z,46.42
2023-12-15T16:56:22.306Z,62.78
2023-12-15T16:58:49.737Z,50.83
2023-12-15T17:01:16.958Z,22.02
2023-12-15T17:03:46.189Z,28.05
2023-12-15T17:06:14.488Z,20.63
2023-12-15T17:08:45.166Z,17.30
2023-12-15T17:11:13.745Z,20.70
2023-12-15T17:13:41.825Z,20.80
2023-12-15T17:16:15.078Z,23.55
2023-12-15T17:18:42.988Z,23.45
2023-12-15T17:21:13.818Z,25.48
2023-12-15T17:23:41.132Z,16.63
2023-12-15T17:26:08.348Z,20.83
2023-12-15T17:28:35.494Z,23.38
2023-12-15T17:31:04.527Z,21.52
2023-12-15T17:33:32.746Z,13.98
2023-12-15T17:36:00.149Z,19.63
2023-12-15T17:38:27.312Z,20.17
2023-12-15T17:40:54.450Z,52.97
2023-12-15T17:43:22.573Z,23.55
2023-12-15T17:45:49.729Z,22.10
2023-12-15T17:48:16.902Z,19.30
2023-12-15T17:50:44.281Z,22.88
2023-12-15T17:53:11.412Z,17.70
2023-12-15T17:55:38.281Z,22.25
2023-12-15T17:58:06.114Z,22.70
2023-12-15T18:00:34.421Z,25.25
2023-12-15T18:03:02.252Z,18.20
2023-12-15T18:05:29.067Z,20.98
2023-12-15T18:08:00.284Z,20.85
2023-12-15T18:10:28.087Z,20.13
2023-12-15T18:12:58.373Z,24.17
2023-12-15T18:15:25.303Z,24.63
2023-12-15T18:17:52.467Z,17.92
2023-12-15T18:20:19.811Z,22.35
2023-12-15T18:22:47.267Z,26.70
2023-12-15T18:25:18.004Z,23.20
2023-12-15T18:27:45.665Z,22.80
2023-12-15T18:30:16.118Z,22.88
2023-12-15T18:32:43.961Z,21.30
2023-12-15T18:35:10.934Z,18.92
2023-12-15T18:37:38.688Z,18.17
2023-12-15T18:40:09.888Z,20.83
2023-12-15T18:42:37.341Z,21.65
2023-12-15T18:45:04.870Z,21.00
2023-12-15T18:47:32.275Z,25.42
2023-12-15T18:50:03.276Z,26.02
2023-12-15T18:52:31.180Z,25.20
2023-12-15T18:54:58.289Z,18.90
2023-12-15T18:57:26.595Z,19.30
2023-12-15T18:59:55.498Z,24.95
2023-12-15T19:02:23.057Z,31.80
2023-12-15T19:04:50.303Z,27.38
2023-12-15T19:07:18.185Z,27.25
2023-12-15T19:09:45.380Z,24.08
2023-12-15T19:12:12.318Z,28.65
2023-12-15T19:14:39.536Z,51.78
2023-12-15T19:17:06.592Z,32.72
2023-12-15T19:19:33.631Z,26.92
2023-12-15T19:22:00.583Z,20.30
2023-12-15T19:24:27.674Z,21.52
2023-12-15T19:26:55.049Z,23.35
2023-12-15T19:29:21.999Z,23.55
2023-12-15T19:31:48.993Z,24.45
2023-12-15T19:34:16.381Z,30.77
2023-12-15T19:36:43.490Z,83.38
2023-12-15T19:39:10.820Z,42.58
2023-12-15T19:41:39.478Z,27.38
2023-12-15T19:44:07.230Z,29.83
2023-12-15T19:46:38.081Z,23.23
2023-12-15T19:49:11.506Z,22.63
2023-12-15T19:51:38.731Z,20.35
2023-12-15T19:54:13.024Z,22.33
2023-12-15T19:56:47.718Z,23.80
2023-12-15T19:59:17.788Z,19.70
2023-12-15T20:01:47.586Z,24.48
2023-12-15T20:04:15.156Z,28.10
2023-12-15T20:06:42.022Z,25.67
2023-12-15T20:09:09.346Z,21.80
2023-12-15T20:11:38.366Z,25.25
2023-12-15T20:14:07.420Z,25.83
2023-12-15T20:16:35.596Z,30.65
2023-12-15T20:19:03.065Z,25.55
2023-12-15T20:21:30.929Z,21.60
2023-12-15T20:23:59.117Z,26.15
2023-12-15T20:26:26.637Z,21.00
2023-12-15T20:28:54.553Z,24.88
2023-12-15T20:31:23.563Z,24.48
2023-12-15T20:33:50.962Z,26.25
2023-12-15T20:36:22.403Z,30.92
2023-12-15T20:38:49.587Z,20.60
2023-12-15T20:41:21.144Z,21.02
2023-12-15T20:43:49.228Z,24.52
2023-12-15T20:46:17.002Z,26.98
2023-12-15T20:48:44.724Z,21.77
2023-12-15T20:51:24.211Z,28.05
2023-12-15T20:53:51.383Z,30.17
2023-12-15T20:56:29.405Z,42.75
2023-12-15T20:58:57.005Z,35.90
2023-12-15T21:01:24.348Z,20.92
2023-12-15T21:03:55.510Z,24.25
2023-12-15T21:06:24.671Z,29.83
2023-12-15T21:08:55.436Z,31.67
2023-12-15T21:11:22.524Z,24.17
2023-12-15T21:13:52.554Z,23.10
2023-12-15T21:16:27.972Z,22.48
2023-12-15T21:18:55.951Z,25.75
2023-12-15T21:21:31.751Z,20.92
2023-12-15T21:23:59.297Z,24.10
2023-12-15T21:26:26.463Z,26.33
2023-12-15T21:28:56.034Z,29.17
2023-12-15T21:31:23.257Z,30.90
2023-12-15T21:33:50.391Z,17.58
2023-12-15T21:36:17.595Z,31.08
2023-12-15T21:38:44.457Z,23.88
2023-12-15T21:41:16.550Z,30.23
2023-12-15T21:43:43.840Z,26.38
2023-12-15T21:46:10.676Z,34.22
2023-12-15T21:48:37.747Z,28.50
2023-12-15T21:51:05.206Z,26.30
2023-12-15T21:53:32.381Z,28.25
2023-12-15T21:55:59.444Z,25.35
2023-12-15T21:58:26.615Z,26.13
2023-12-15T22:00:53.829Z,29.40
2023-12-15T22:03:20.766Z,25.63
2023-12-15T22:05:47.663Z,26.45
2023-12-15T22:08:14.598Z,23.45
2023-12-15T22:10:41.575Z,28.50
2023-12-15T22:13:08.881Z,26.75
2023-12-15T22:15:36.039Z,26.20
2023-12-15T22:18:03.104Z,24.25
2023-12-15T22:20:31.507Z,23.83
2023-12-15T22:22:58.659Z,23.42
2023-12-15T22:25:25.935Z,30.20
2023-12-15T22:27:53.005Z,32.17
2023-12-15T22:30:25.363Z,21.83
2023-12-15T22:32:53.288Z,24.20
2023-12-15T22:35:20.481Z,22.83
2023-12-15T22:37:47.934Z,24.38
2023-12-15T22:40:15.041Z,25.98
2023-12-15T22:42:42.009Z,30.30
2023-12-15T22:45:09.601Z,29.20
2023-12-15T22:47:38.563Z,28.65
2023-12-15T22:50:07.032Z,25.63
2023-12-15T22:52:34.181Z,23.20
2023-12-15T22:55:01.273Z,22.73
2023-12-15T22:57:28.144Z,27.05
2023-12-15T22:59:55.328Z,29.13
2023-12-15T23:02:23.825Z,20.17
2023-12-15T23:04:51.886Z,25.90
2023-12-15T23:07:19.032Z,26.90
2023-12-15T23:09:46.366Z,20.38
2023-12-15T23:12:13.502Z,26.58
2023-12-15T23:14:41.574Z,31.35
2023-12-15T23:17:10.053Z,27.77
2023-12-15T23:19:37.213Z,36.28
2023-12-15T23:22:04.572Z,47.28
2023-12-15T23:24:31.807Z,41.38
2023-12-15T23:26:58.845Z,43.72
2023-12-15T23:29:25.899Z,27.55
2023-12-15T23:31:52.881Z,45.45
2023-12-15T23:34:20.918Z,43.53
2023-12-15T23:36:47.958Z,20.95
2023-12-15T23:39:15.549Z,21.75
2023-12-15T23:41:43.433Z,26.05
2023-12-15T23:44:10.697Z,17.42
2023-12-15T23:46:40.012Z,22.77
2023-12-15T23:49:07.382Z,25.52
2023-12-15T23:51:34.673Z,22.00
2023-12-15T23:54:02.009Z,19.85
2023-12-15T23:56:29.214Z,21.38
2023-12-15T23:58:56.956Z,15.75
